Time,TemperatureF,DewpointF,PressureIn,WindDirection,WindDirectionDegrees,WindSpeedMPH,WindSpeedGustMPH,Humidity,HourlyPrecipIn,Conditions,Clouds,dailyrainin,SoftwareType,DateUTC
2013-07-30 00:00:00,62.1,57.7,30.16,SE,135,5.0,6.0,86,0.00,,,0.00,meteohub,2013-07-30 05:00:00,
2013-07-30 00:05:00,62.1,57.7,30.17,SE,135,5.0,6.0,86,0.00,,,0.00,meteohub,2013-07-30 05:05:00,
2013-07-30 00:10:00,61.9,57.9,30.16,South,180,4.0,6.0,87,0.00,,,0.00,meteohub,2013-07-30 05:10:00,
2013-07-30 00:15:00,61.9,57.9,30.16,SE,135,4.0,6.0,87,0.00,,,0.00,meteohub,2013-07-30 05:15:00,
2013-07-30 00:20:00,61.7,57.7,30.16,SW,225,4.0,6.0,87,0.00,,,0.00,meteohub,2013-07-30 05:20:00,
2013-07-30 00:25:00,61.7,57.7,30.17,South,180,2.0,6.0,87,0.00,,,0.00,meteohub,2013-07-30 05:25:00,
2013-07-30 00:30:00,61.3,57.4,30.16,SE,135,4.0,6.0,87,0.00,,,0.00,meteohub,2013-07-30 05:30:00,
2013-07-30 00:36:00,61.3,57.7,30.16,SE,135,4.0,5.0,88,0.00,,,0.00,meteohub,2013-07-30 05:36:00,
2013-07-30 00:41:00,61.3,57.7,30.16,NE,45,2.0,5.0,88,0.00,,,0.00,meteohub,2013-07-30 05:41:00,
2013-07-30 00:46:00,61.0,57.4,30.16,SE,135,0.0,5.0,88,0.00,,,0.00,meteohub,2013-07-30 05:46:00,
2013-07-30 00:52:00,61.0,57.4,30.16,South,180,4.0,4.0,88,0.00,,,0.00,meteohub,2013-07-30 05:52:00,
2013-07-30 00:57:00,61.0,57.7,30.16,SE,135,3.0,7.0,89,0.00,,,0.00,meteohub,2013-07-30 05:57:00,
2013-07-30 01:02:00,61.0,57.4,30.16,South,180,4.0,7.0,88,0.00,,,0.00,meteohub,2013-07-30 06:02:00,
2013-07-30 01:07:00,61.0,57.4,30.16,South,180,4.0,7.0,88,0.00,,,0.00,meteohub,2013-07-30 06:07:00,
2013-07-30 01:12:00,60.6,57.4,30.16,SE,135,4.0,8.0,89,0.00,,,0.00,meteohub,2013-07-30 06:12:00,
2013-07-30 01:18:00,60.4,57.6,30.15,East,90,6.0,8.0,90,0.00,,,0.00,meteohub,2013-07-30 06:18:00,
2013-07-30 01:23:00,60.1,57.2,30.16,SE,135,4.0,8.0,90,0.00,,,0.00,meteohub,2013-07-30 06:23:00,
2013-07-30 01:28:00,59.9,57.0,30.16,South,180,5.0,6.0,90,0.00,,,0.00,meteohub,2013-07-30 06:28:00,
2013-07-30 01:33:00,59.9,57.2,30.16,South,180,4.0,6.0,91,0.00,,,0.00,meteohub,2013-07-30 06:33:00,
2013-07-30 01:38:00,59.7,57.0,30.16,East,90,3.0,6.0,91,0.00,,,0.00,meteohub,2013-07-30 06:38:00,
2013-07-30 01:43:00,59.5,56.8,30.16,SE,135,4.0,6.0,91,0.00,,,0.00,meteohub,2013-07-30 06:43:00,
2013-07-30 01:48:00,59.2,56.5,30.15,SE,135,0.0,5.0,91,0.00,,,0.00,meteohub,2013-07-30 06:48:00,
2013-07-30 01:53:00,59.0,56.7,30.16,South,180,0.0,4.0,92,0.00,,,0.00,meteohub,2013-07-30 06:53:00,
2013-07-30 01:58:00,58.8,56.5,30.16,SE,135,0.0,4.0,92,0.00,,,0.00,meteohub,2013-07-30 06:58:00,
2013-07-30 02:04:00,58.8,56.5,30.16,East,90,4.0,0.0,92,0.00,,,0.00,meteohub,2013-07-30 07:04:00,
2013-07-30 02:09:00,58.6,56.8,30.16,SE,135,2.0,4.0,94,0.00,,,0.00,meteohub,2013-07-30 07:09:00,
2013-07-30 02:14:00,58.3,56.5,30.15,South,180,1.0,4.0,94,0.00,,,0.00,meteohub,2013-07-30 07:14:00,
2013-07-30 02:20:00,58.3,56.5,30.15,SE,135,0.0,4.0,94,0.00,,,0.00,meteohub,2013-07-30 07:20:00,
2013-07-30 02:25:00,58.3,56.5,30.15,SE,135,0.0,4.0,94,0.00,,,0.00,meteohub,2013-07-30 07:25:00,
2013-07-30 02:30:00,58.3,57.2,30.15,South,180,5.0,5.0,96,0.00,,,0.00,meteohub,2013-07-30 07:30:00,
2013-07-30 02:35:00,58.1,57.2,30.14,South,180,3.0,7.0,97,0.00,,,0.00,meteohub,2013-07-30 07:35:00,
2013-07-30 02:40:00,58.1,57.2,30.15,South,180,4.0,7.0,97,0.00,,,0.00,meteohub,2013-07-30 07:40:00,
2013-07-30 02:46:00,57.9,57.0,30.15,ESE,113,3.0,7.0,97,0.00,,,0.00,meteohub,2013-07-30 07:46:00,
2013-07-30 02:51:00,57.7,56.8,30.15,East,90,2.0,6.0,97,0.00,,,0.00,meteohub,2013-07-30 07:51:00,
2013-07-30 02:57:00,57.6,56.7,30.15,SW,225,3.0,7.0,97,0.00,,,0.00,meteohub,2013-07-30 07:57:00,
2013-07-30 03:02:00,57.6,57.0,30.15,South,180,4.0,7.0,98,0.00,,,0.00,meteohub,2013-07-30 08:02:00,
2013-07-30 03:07:00,57.6,57.0,30.15,SE,135,3.0,7.0,98,0.00,,,0.00,meteohub,2013-07-30 08:07:00,
2013-07-30 03:12:00,57.6,57.0,30.14,SE,135,3.0,5.0,98,0.00,,,0.00,meteohub,2013-07-30 08:12:00,
2013-07-30 03:17:00,57.6,57.0,30.15,East,90,4.0,5.0,98,0.00,,,0.00,meteohub,2013-07-30 08:17:00,
2013-07-30 03:23:00,57.6,57.0,30.15,East,90,4.0,5.0,98,0.00,,,0.00,meteohub,2013-07-30 08:23:00,
2013-07-30 03:28:00,57.0,56.5,30.15,East,90,3.0,5.0,98,0.00,,,0.00,meteohub,2013-07-30 08:28:00,
2013-07-30 03:33:00,56.8,56.5,30.15,East,90,1.0,4.0,99,0.00,,,0.00,meteohub,2013-07-30 08:33:00,
2013-07-30 03:38:00,56.7,56.3,30.15,ESE,113,3.0,4.0,99,0.00,,,0.00,meteohub,2013-07-30 08:38:00,
2013-07-30 03:43:00,56.7,56.3,30.14,East,90,2.0,3.0,99,0.00,,,0.00,meteohub,2013-07-30 08:43:00,
2013-07-30 03:48:00,56.5,56.1,30.14,South,180,4.0,4.0,99,0.00,,,0.00,meteohub,2013-07-30 08:48:00,
2013-07-30 03:54:00,56.5,56.1,30.14,SE,135,4.0,4.0,99,0.00,,,0.00,meteohub,2013-07-30 08:54:00,
2013-07-30 03:59:00,56.5,56.1,30.15,East,90,2.0,4.0,99,0.00,,,0.00,meteohub,2013-07-30 08:59:00,
2013-07-30 04:04:00,56.5,56.1,30.15,SE,135,3.0,4.0,99,0.00,,,0.00,meteohub,2013-07-30 09:04:00,
2013-07-30 04:09:00,56.5,56.1,30.14,East,90,3.0,4.0,99,0.00,,,0.00,meteohub,2013-07-30 09:09:00,
2013-07-30 04:14:00,56.5,56.1,30.14,SE,135,4.0,4.0,99,0.00,,,0.00,meteohub,2013-07-30 09:14:00,
2013-07-30 04:20:00,56.5,56.1,30.15,ESE,113,4.0,4.0,99,0.00,,,0.00,meteohub,2013-07-30 09:20:00,
2013-07-30 04:25:00,56.5,56.1,30.15,SE,135,2.0,4.0,99,0.00,,,0.00,meteohub,2013-07-30 09:25:00,
2013-07-30 04:30:00,56.3,55.9,30.15,East,90,2.0,4.0,99,0.00,,,0.00,meteohub,2013-07-30 09:30:00,
2013-07-30 04:35:00,56.3,55.9,30.15,SE,135,1.0,4.0,99,0.00,,,0.00,meteohub,2013-07-30 09:35:00,
2013-07-30 04:37:00,56.3,55.9,30.16,South,180,2.0,4.0,99,0.00,,,0.00,meteohub,2013-07-30 09:37:00,
2013-07-30 04:42:00,56.3,55.9,30.16,South,180,3.0,3.0,99,0.00,,,0.00,meteohub,2013-07-30 09:42:00,
2013-07-30 04:47:00,56.3,55.9,30.16,South,180,4.0,4.0,99,0.00,,,0.00,meteohub,2013-07-30 09:47:00,
2013-07-30 04:52:00,56.3,55.9,30.16,East,90,3.0,4.0,99,0.00,,,0.00,meteohub,2013-07-30 09:52:00,
2013-07-30 04:57:00,56.3,55.9,30.15,South,180,4.0,4.0,99,0.00,,,0.00,meteohub,2013-07-30 09:57:00,
2013-07-30 05:02:00,56.3,55.9,30.15,SE,135,4.0,4.0,99,0.00,,,0.00,meteohub,2013-07-30 10:02:00,
2013-07-30 05:07:00,56.3,55.9,30.16,SE,135,4.0,4.0,99,0.00,,,0.00,meteohub,2013-07-30 10:07:00,
2013-07-30 05:12:00,56.1,55.8,30.16,SW,225,4.0,4.0,99,0.00,,,0.00,meteohub,2013-07-30 10:12:00,
2013-07-30 05:17:00,56.1,55.8,30.16,SE,135,4.0,4.0,99,0.00,,,0.00,meteohub,2013-07-30 10:17:00,
2013-07-30 05:23:00,56.1,55.8,30.16,NE,45,3.0,6.0,99,0.00,,,0.00,meteohub,2013-07-30 10:23:00,
2013-07-30 05:28:00,56.1,55.8,30.16,South,180,4.0,6.0,99,0.00,,,0.00,meteohub,2013-07-30 10:28:00,
2013-07-30 05:33:00,56.1,55.8,30.16,SE,135,4.0,6.0,99,0.00,,,0.00,meteohub,2013-07-30 10:33:00,
2013-07-30 05:38:00,56.1,55.8,30.16,ESE,113,4.0,5.0,99,0.00,,,0.00,meteohub,2013-07-30 10:38:00,
2013-07-30 05:43:00,56.1,55.8,30.16,South,180,4.0,6.0,99,0.00,,,0.00,meteohub,2013-07-30 10:43:00,
2013-07-30 05:48:00,56.1,55.8,30.16,SE,135,4.0,7.0,99,0.00,,,0.00,meteohub,2013-07-30 10:48:00,
2013-07-30 05:54:00,56.1,55.8,30.16,SE,135,4.0,7.0,99,0.00,,,0.00,meteohub,2013-07-30 10:54:00,
2013-07-30 05:59:00,56.1,55.8,30.16,South,180,3.0,7.0,99,0.00,,,0.00,meteohub,2013-07-30 10:59:00,
2013-07-30 06:04:00,56.1,55.8,30.16,SSE,158,4.0,6.0,99,0.00,,,0.00,meteohub,2013-07-30 11:04:00,
2013-07-30 06:09:00,56.3,55.9,30.16,East,90,2.0,4.0,99,0.00,,,0.00,meteohub,2013-07-30 11:09:00,
2013-07-30 06:14:00,56.5,56.1,30.17,SE,135,4.0,4.0,99,0.00,,,0.00,meteohub,2013-07-30 11:14:00,
2013-07-30 06:19:00,56.5,56.1,30.17,South,180,3.0,4.0,99,0.00,,,0.00,meteohub,2013-07-30 11:19:00,
2013-07-30 06:24:00,56.7,56.3,30.17,SE,135,5.0,5.0,99,0.00,,,0.00,meteohub,2013-07-30 11:24:00,
2013-07-30 06:29:00,56.7,56.3,30.17,SE,135,3.0,4.0,99,0.00,,,0.00,meteohub,2013-07-30 11:29:00,
2013-07-30 06:35:00,56.7,56.3,30.17,NE,45,3.0,5.0,99,0.00,,,0.00,meteohub,2013-07-30 11:35:00,
2013-07-30 06:40:00,56.8,56.5,30.17,SE,135,1.0,5.0,99,0.00,,,0.00,meteohub,2013-07-30 11:40:00,
2013-07-30 06:45:00,57.0,56.7,30.17,SE,135,2.0,5.0,99,0.00,,,0.00,meteohub,2013-07-30 11:45:00,
2013-07-30 06:50:00,57.0,56.7,30.17,East,90,4.0,4.0,99,0.00,,,0.00,meteohub,2013-07-30 11:50:00,
2013-07-30 06:55:00,57.2,56.8,30.17,South,180,4.0,5.0,99,0.00,,,0.00,meteohub,2013-07-30 11:55:00,
2013-07-30 07:01:00,57.4,57.0,30.17,SE,135,2.0,5.0,99,0.00,,,0.00,meteohub,2013-07-30 12:01:00,
2013-07-30 07:06:00,57.6,57.2,30.17,South,180,4.0,5.0,99,0.00,,,0.00,meteohub,2013-07-30 12:06:00,
2013-07-30 07:11:00,57.7,57.4,30.16,East,90,4.0,6.0,99,0.00,,,0.00,meteohub,2013-07-30 12:11:00,
2013-07-30 07:16:00,57.9,57.6,30.16,SW,225,7.0,7.0,99,0.00,,,0.00,meteohub,2013-07-30 12:16:00,
2013-07-30 07:22:00,58.1,57.7,30.16,SSW,203,3.0,7.0,99,0.00,,,0.00,meteohub,2013-07-30 12:22:00,
2013-07-30 07:27:00,58.5,58.1,30.16,SE,135,3.0,7.0,99,0.00,,,0.00,meteohub,2013-07-30 12:27:00,
2013-07-30 07:32:00,58.6,58.3,30.16,SW,225,4.0,7.0,99,0.00,,,0.00,meteohub,2013-07-30 12:32:00,
2013-07-30 07:37:00,58.8,58.5,30.16,SE,135,5.0,6.0,99,0.00,,,0.00,meteohub,2013-07-30 12:37:00,
2013-07-30 07:42:00,59.0,58.6,30.16,South,180,5.0,7.0,99,0.00,,,0.00,meteohub,2013-07-30 12:42:00,
2013-07-30 07:47:00,59.2,58.8,30.17,SE,135,5.0,7.0,99,0.00,,,0.00,meteohub,2013-07-30 12:47:00,
2013-07-30 07:52:00,59.2,58.8,30.17,SE,135,4.0,7.0,99,0.00,,,0.00,meteohub,2013-07-30 12:52:00,
2013-07-30 07:57:00,59.4,59.0,30.16,SE,135,5.0,5.0,99,0.00,,,0.00,meteohub,2013-07-30 12:57:00,
2013-07-30 08:03:00,59.5,59.0,30.16,East,90,4.0,5.0,98,0.00,,,0.00,meteohub,2013-07-30 13:03:00,
2013-07-30 08:08:00,59.7,59.2,30.16,South,180,6.0,6.0,98,0.00,,,0.00,meteohub,2013-07-30 13:08:00,
2013-07-30 08:13:00,60.1,59.2,30.16,SE,135,5.0,6.0,97,0.00,,,0.00,meteohub,2013-07-30 13:13:00,
2013-07-30 08:18:00,60.3,58.8,30.17,ESE,113,8.0,8.0,95,0.00,,,0.00,meteohub,2013-07-30 13:18:00,
2013-07-30 08:23:00,60.4,59.0,30.17,South,180,7.0,8.0,95,0.00,,,0.00,meteohub,2013-07-30 13:23:00,
2013-07-30 08:28:00,60.6,58.8,30.17,WNW,293,7.0,8.0,94,0.00,,,0.00,meteohub,2013-07-30 13:28:00,
2013-07-30 08:33:00,60.6,58.6,30.17,South,180,8.0,8.0,93,0.00,,,0.00,meteohub,2013-07-30 13:33:00,
2013-07-30 08:38:00,61.0,59.0,30.16,South,180,4.0,8.0,93,0.00,,,0.00,meteohub,2013-07-30 13:38:00,
2013-07-30 08:44:00,61.2,59.2,30.17,South,180,4.0,8.0,93,0.00,,,0.00,meteohub,2013-07-30 13:44:00,
2013-07-30 08:49:00,61.3,59.0,30.16,South,180,7.0,8.0,92,0.00,,,0.00,meteohub,2013-07-30 13:49:00,
2013-07-30 08:54:00,61.3,59.0,30.16,South,180,5.0,7.0,92,0.00,,,0.00,meteohub,2013-07-30 13:54:00,
2013-07-30 08:59:00,61.7,59.0,30.16,South,180,7.0,8.0,91,0.00,,,0.00,meteohub,2013-07-30 13:59:00,
2013-07-30 09:05:00,61.7,59.0,30.17,South,180,7.0,8.0,91,0.00,,,0.00,meteohub,2013-07-30 14:05:00,
2013-07-30 09:10:00,61.9,59.2,30.17,East,90,2.0,8.0,91,0.00,,,0.00,meteohub,2013-07-30 14:10:00,
2013-07-30 09:15:00,62.2,59.5,30.16,South,180,8.0,8.0,91,0.00,,,0.00,meteohub,2013-07-30 14:15:00,
2013-07-30 09:20:00,62.4,59.4,30.16,SSE,158,5.0,8.0,90,0.00,,,0.00,meteohub,2013-07-30 14:20:00,
2013-07-30 09:25:00,62.6,59.5,30.16,SE,135,6.0,8.0,90,0.00,,,0.00,meteohub,2013-07-30 14:25:00,
2013-07-30 09:30:00,62.8,59.7,30.17,South,180,7.0,8.0,90,0.00,,,0.00,meteohub,2013-07-30 14:30:00,
2013-07-30 09:35:00,63.0,59.7,30.16,South,180,5.0,7.0,89,0.00,,,0.00,meteohub,2013-07-30 14:35:00,
2013-07-30 09:40:00,63.1,59.9,30.16,South,180,5.0,7.0,89,0.00,,,0.00,meteohub,2013-07-30 14:40:00,
2013-07-30 09:46:00,63.1,59.5,30.16,South,180,6.0,7.0,88,0.00,,,0.00,meteohub,2013-07-30 14:46:00,
2013-07-30 09:51:00,63.3,59.7,30.16,South,180,4.0,7.0,88,0.00,,,0.00,meteohub,2013-07-30 14:51:00,
2013-07-30 09:56:00,63.3,59.7,30.16,South,180,5.0,6.0,88,0.00,,,0.00,meteohub,2013-07-30 14:56:00,
2013-07-30 10:01:00,63.7,60.1,30.16,South,180,5.0,6.0,88,0.00,,,0.00,meteohub,2013-07-30 15:01:00,
2013-07-30 10:06:00,63.9,59.9,30.16,SW,225,5.0,5.0,87,0.00,,,0.00,meteohub,2013-07-30 15:06:00,
2013-07-30 10:11:00,64.4,60.1,30.15,SW,225,5.0,8.0,86,0.00,,,0.00,meteohub,2013-07-30 15:11:00,
2013-07-30 10:16:00,64.6,59.9,30.16,SW,225,8.0,11.0,85,0.00,,,0.00,meteohub,2013-07-30 15:16:00,
2013-07-30 10:21:00,64.8,60.1,30.15,South,180,6.0,11.0,85,0.00,,,0.00,meteohub,2013-07-30 15:21:00,
2013-07-30 10:27:00,65.3,61.0,30.16,SE,135,3.0,11.0,86,0.00,,,0.00,meteohub,2013-07-30 15:27:00,
2013-07-30 10:32:00,65.8,60.8,30.16,South,180,5.0,9.0,84,0.00,,,0.00,meteohub,2013-07-30 15:32:00,
2013-07-30 10:37:00,66.0,60.4,30.16,SW,225,6.0,8.0,82,0.00,,,0.00,meteohub,2013-07-30 15:37:00,
2013-07-30 10:42:00,66.2,60.6,30.15,SW,225,8.0,8.0,82,0.00,,,0.00,meteohub,2013-07-30 15:42:00,
2013-07-30 10:47:00,66.2,60.3,30.15,SW,225,5.0,8.0,81,0.00,,,0.00,meteohub,2013-07-30 15:47:00,
2013-07-30 10:52:00,66.4,60.1,30.16,South,180,7.0,10.0,80,0.00,,,0.00,meteohub,2013-07-30 15:52:00,
2013-07-30 10:57:00,66.6,59.9,30.15,SW,225,8.0,10.0,79,0.00,,,0.00,meteohub,2013-07-30 15:57:00,
2013-07-30 11:02:00,66.6,59.5,30.15,SW,225,8.0,10.0,78,0.00,,,0.00,meteohub,2013-07-30 16:02:00,
2013-07-30 11:08:00,66.6,59.5,30.16,SE,135,6.0,9.0,78,0.00,,,0.00,meteohub,2013-07-30 16:08:00,
2013-07-30 11:13:00,66.6,59.5,30.16,SW,225,5.0,11.0,78,0.00,,,0.00,meteohub,2013-07-30 16:13:00,
2013-07-30 11:18:00,66.7,59.4,30.15,South,180,8.0,11.0,77,0.00,,,0.00,meteohub,2013-07-30 16:18:00,
2013-07-30 11:23:00,66.9,59.5,30.16,South,180,4.0,11.0,77,0.00,,,0.00,meteohub,2013-07-30 16:23:00,
2013-07-30 11:28:00,66.7,59.0,30.16,SE,135,6.0,9.0,76,0.00,,,0.00,meteohub,2013-07-30 16:28:00,
2013-07-30 11:34:00,67.1,59.7,30.16,South,180,6.0,9.0,77,0.00,,,0.00,meteohub,2013-07-30 16:34:00,
2013-07-30 11:39:00,67.5,59.5,30.16,SW,225,7.0,9.0,76,0.00,,,0.00,meteohub,2013-07-30 16:39:00,
2013-07-30 11:44:00,67.8,59.9,30.16,South,180,6.0,9.0,76,0.00,,,0.00,meteohub,2013-07-30 16:44:00,
2013-07-30 11:49:00,67.6,59.4,30.15,SW,225,5.0,8.0,75,0.00,,,0.00,meteohub,2013-07-30 16:49:00,
2013-07-30 11:54:00,67.8,59.9,30.15,SE,135,4.0,8.0,76,0.00,,,0.00,meteohub,2013-07-30 16:54:00,
2013-07-30 12:00:00,68.4,60.4,30.15,East,90,5.0,7.0,76,0.00,,,0.00,meteohub,2013-07-30 17:00:00,
2013-07-30 12:05:00,68.5,60.3,30.15,SW,225,6.0,7.0,75,0.00,,,0.00,meteohub,2013-07-30 17:05:00,
2013-07-30 12:10:00,68.5,60.3,30.15,South,180,6.0,7.0,75,0.00,,,0.00,meteohub,2013-07-30 17:10:00,
2013-07-30 12:15:00,68.4,60.8,30.14,SE,135,4.0,7.0,77,0.00,,,0.00,meteohub,2013-07-30 17:15:00,
2013-07-30 12:20:00,68.4,60.8,30.15,East,90,6.0,8.0,77,0.00,,,0.00,meteohub,2013-07-30 17:20:00,
2013-07-30 12:25:00,68.2,60.6,30.14,East,90,4.0,7.0,77,0.00,,,0.00,meteohub,2013-07-30 17:25:00,
2013-07-30 12:30:00,67.8,60.6,30.14,SE,135,8.0,8.0,78,0.00,,,0.00,meteohub,2013-07-30 17:30:00,
2013-07-30 12:35:00,67.8,60.6,30.14,SE,135,4.0,8.0,78,0.00,,,0.00,meteohub,2013-07-30 17:35:00,
2013-07-30 12:40:00,67.6,60.6,30.14,East,90,7.0,8.0,78,0.00,,,0.00,meteohub,2013-07-30 17:40:00,
2013-07-30 12:46:00,67.5,60.8,30.13,SE,135,7.0,8.0,79,0.00,,,0.00,meteohub,2013-07-30 17:46:00,
2013-07-30 12:51:00,67.6,61.0,30.13,ESE,113,8.0,8.0,79,0.00,,,0.00,meteohub,2013-07-30 17:51:00,
2013-07-30 12:56:00,67.8,60.6,30.13,SE,135,8.0,9.0,78,0.00,,,0.00,meteohub,2013-07-30 17:56:00,
2013-07-30 13:01:00,68.0,61.2,30.12,East,90,5.0,10.0,79,0.00,,,0.00,meteohub,2013-07-30 18:01:00,
2013-07-30 13:07:00,68.4,61.2,30.13,SE,135,6.0,10.0,78,0.00,,,0.00,meteohub,2013-07-30 18:07:00,
2013-07-30 13:12:00,68.5,61.3,30.12,SE,135,6.0,11.0,78,0.00,,,0.00,meteohub,2013-07-30 18:12:00,
2013-07-30 13:17:00,68.9,62.1,30.12,ESE,113,6.0,11.0,79,0.00,,,0.00,meteohub,2013-07-30 18:17:00,
2013-07-30 13:22:00,69.1,61.5,30.12,SE,135,8.0,11.0,77,0.00,,,0.00,meteohub,2013-07-30 18:22:00,
2013-07-30 13:27:00,69.3,62.4,30.12,East,90,8.0,8.0,79,0.00,,,0.00,meteohub,2013-07-30 18:27:00,
2013-07-30 13:32:00,69.4,61.9,30.12,NNE,23,5.0,8.0,77,0.00,,,0.00,meteohub,2013-07-30 18:32:00,
2013-07-30 13:37:00,69.4,61.5,30.12,ESE,113,5.0,8.0,76,0.00,,,0.00,meteohub,2013-07-30 18:37:00,
2013-07-30 13:42:00,69.4,61.9,30.12,SE,135,8.0,8.0,77,0.00,,,0.00,meteohub,2013-07-30 18:42:00,
2013-07-30 13:47:00,69.3,61.3,30.12,SE,135,7.0,8.0,76,0.00,,,0.00,meteohub,2013-07-30 18:47:00,
2013-07-30 13:52:00,68.9,61.3,30.12,SE,135,8.0,8.0,77,0.00,,,0.00,meteohub,2013-07-30 18:52:00,
2013-07-30 13:58:00,68.5,61.3,30.12,SE,135,5.0,8.0,78,0.00,,,0.00,meteohub,2013-07-30 18:58:00,
2013-07-30 14:03:00,68.4,61.5,30.12,SE,135,4.0,8.0,79,0.00,,,0.00,meteohub,2013-07-30 19:03:00,
2013-07-30 14:08:00,68.4,61.5,30.12,South,180,8.0,8.0,79,0.00,,,0.00,meteohub,2013-07-30 19:08:00,
2013-07-30 14:13:00,68.2,61.7,30.12,SE,135,6.0,8.0,80,0.00,,,0.00,meteohub,2013-07-30 19:13:00,
2013-07-30 14:18:00,68.2,62.1,30.12,SE,135,4.0,8.0,81,0.00,,,0.00,meteohub,2013-07-30 19:18:00,
2013-07-30 14:24:00,68.4,62.2,30.12,SE,135,4.0,8.0,81,0.00,,,0.00,meteohub,2013-07-30 19:24:00,
2013-07-30 14:29:00,68.4,62.2,30.12,East,90,5.0,7.0,81,0.00,,,0.00,meteohub,2013-07-30 19:29:00,
2013-07-30 14:34:00,68.4,62.2,30.12,East,90,4.0,6.0,81,0.00,,,0.00,meteohub,2013-07-30 19:34:00,
2013-07-30 14:39:00,68.2,62.4,30.12,SE,135,3.0,6.0,82,0.00,,,0.00,meteohub,2013-07-30 19:39:00,
2013-07-30 14:45:00,68.2,62.4,30.12,South,180,4.0,6.0,82,0.00,,,0.00,meteohub,2013-07-30 19:45:00,
2013-07-30 14:50:00,68.2,62.4,30.12,SE,135,3.0,5.0,82,0.00,,,0.00,meteohub,2013-07-30 19:50:00,
2013-07-30 14:55:00,68.0,62.2,30.12,East,90,3.0,6.0,82,0.00,,,0.00,meteohub,2013-07-30 19:55:00,
2013-07-30 15:00:00,68.0,62.2,30.12,SE,135,3.0,6.0,82,0.00,,,0.00,meteohub,2013-07-30 20:00:00,
2013-07-30 15:06:00,68.0,62.6,30.12,East,90,4.0,6.0,83,0.00,,,0.00,meteohub,2013-07-30 20:06:00,
2013-07-30 15:11:00,68.0,62.6,30.12,East,90,3.0,5.0,83,0.00,,,0.00,meteohub,2013-07-30 20:11:00,
2013-07-30 15:16:00,68.2,62.8,30.11,South,180,3.0,5.0,83,0.00,,,0.00,meteohub,2013-07-30 20:16:00,
2013-07-30 15:21:00,68.4,62.6,30.11,East,90,4.0,5.0,82,0.00,,,0.00,meteohub,2013-07-30 20:21:00,
2013-07-30 15:26:00,68.5,62.8,30.11,South,180,6.0,6.0,82,0.00,,,0.00,meteohub,2013-07-30 20:26:00,
2013-07-30 15:31:00,68.4,62.6,30.11,SE,135,4.0,6.0,82,0.00,,,0.00,meteohub,2013-07-30 20:31:00,
2013-07-30 15:37:00,68.4,62.6,30.11,SE,135,4.0,6.0,82,0.00,,,0.00,meteohub,2013-07-30 20:37:00,
2013-07-30 15:42:00,68.5,63.1,30.10,SE,135,5.0,6.0,83,0.00,,,0.00,meteohub,2013-07-30 20:42:00,
2013-07-30 15:47:00,68.7,63.3,30.10,SE,135,6.0,6.0,83,0.00,,,0.00,meteohub,2013-07-30 20:47:00,
2013-07-30 15:52:00,69.1,63.7,30.10,SE,135,4.0,8.0,83,0.00,,,0.00,meteohub,2013-07-30 20:52:00,
2013-07-30 15:58:00,69.3,63.1,30.10,SE,135,8.0,8.0,81,0.00,,,0.00,meteohub,2013-07-30 20:58:00,
2013-07-30 16:03:00,69.3,63.1,30.10,East,90,4.0,8.0,81,0.00,,,0.00,meteohub,2013-07-30 21:03:00,
2013-07-30 16:08:00,69.4,63.3,30.10,SE,135,5.0,8.0,81,0.00,,,0.00,meteohub,2013-07-30 21:08:00,
2013-07-30 16:13:00,69.4,63.3,30.10,South,180,6.0,8.0,81,0.00,,,0.00,meteohub,2013-07-30 21:13:00,
2013-07-30 16:19:00,69.1,62.6,30.10,SE,135,4.0,7.0,80,0.00,,,0.00,meteohub,2013-07-30 21:19:00,
2013-07-30 16:24:00,69.1,63.3,30.10,South,180,4.0,7.0,82,0.00,,,0.00,meteohub,2013-07-30 21:24:00,
2013-07-30 16:29:00,69.1,63.3,30.10,East,90,5.0,6.0,82,0.00,,,0.00,meteohub,2013-07-30 21:29:00,
2013-07-30 16:34:00,68.9,63.1,30.10,SE,135,5.0,6.0,82,0.00,,,0.00,meteohub,2013-07-30 21:34:00,
2013-07-30 16:40:00,68.7,63.0,30.10,South,180,6.0,8.0,82,0.00,,,0.00,meteohub,2013-07-30 21:40:00,
2013-07-30 16:45:00,68.7,63.0,30.10,SE,135,4.0,8.0,82,0.00,,,0.00,meteohub,2013-07-30 21:45:00,
2013-07-30 16:50:00,68.9,63.1,30.10,South,180,4.0,8.0,82,0.00,,,0.00,meteohub,2013-07-30 21:50:00,
2013-07-30 16:55:00,68.9,63.1,30.10,SE,135,6.0,8.0,82,0.00,,,0.00,meteohub,2013-07-30 21:55:00,
2013-07-30 17:00:00,68.7,63.3,30.10,SE,135,4.0,8.0,83,0.00,,,0.00,meteohub,2013-07-30 22:00:00,
2013-07-30 17:05:00,68.5,63.1,30.11,South,180,5.0,8.0,83,0.00,,,0.00,meteohub,2013-07-30 22:05:00,
2013-07-30 17:11:00,68.4,63.0,30.10,SE,135,6.0,8.0,83,0.00,,,0.00,meteohub,2013-07-30 22:11:00,
2013-07-30 17:16:00,68.0,63.0,30.10,SE,135,10.0,10.0,84,0.00,,,0.00,meteohub,2013-07-30 22:16:00,
2013-07-30 17:21:00,67.8,63.1,30.10,SW,225,4.0,10.0,85,0.00,,,0.00,meteohub,2013-07-30 22:21:00,
2013-07-30 17:26:00,67.6,63.3,30.10,South,180,4.0,10.0,86,0.00,,,0.00,meteohub,2013-07-30 22:26:00,
2013-07-30 17:31:00,67.5,63.5,30.09,South,180,5.0,10.0,87,0.00,,,0.00,meteohub,2013-07-30 22:31:00,
2013-07-30 17:36:00,67.3,63.7,30.10,South,180,4.0,7.0,88,0.00,,,0.00,meteohub,2013-07-30 22:36:00,
2013-07-30 17:42:00,67.3,63.7,30.10,SE,135,4.0,7.0,88,0.00,,,0.00,meteohub,2013-07-30 22:42:00,
2013-07-30 17:47:00,67.3,63.7,30.10,SE,135,3.0,6.0,88,0.00,,,0.00,meteohub,2013-07-30 22:47:00,
2013-07-30 17:52:00,67.3,63.9,30.10,East,90,4.0,5.0,89,0.00,,,0.00,meteohub,2013-07-30 22:52:00,
2013-07-30 17:57:00,67.3,63.9,30.10,NW,315,4.0,5.0,89,0.00,,,0.00,meteohub,2013-07-30 22:57:00,
2013-07-30 18:02:00,67.3,63.9,30.10,SE,135,3.0,5.0,89,0.00,,,0.00,meteohub,2013-07-30 23:02:00,
2013-07-30 18:07:00,67.5,64.0,30.09,SE,135,4.0,8.0,89,0.00,,,0.00,meteohub,2013-07-30 23:07:00,
2013-07-30 18:12:00,67.5,64.0,30.09,East,90,4.0,8.0,89,0.00,,,0.00,meteohub,2013-07-30 23:12:00,
2013-07-30 18:18:00,67.5,64.0,30.10,South,180,7.0,8.0,89,0.00,,,0.00,meteohub,2013-07-30 23:18:00,
2013-07-30 18:23:00,67.3,63.9,30.10,South,180,7.0,8.0,89,0.00,,,0.00,meteohub,2013-07-30 23:23:00,
2013-07-30 18:28:00,66.9,63.5,30.09,SW,225,7.0,9.0,89,0.00,,,0.00,meteohub,2013-07-30 23:28:00,
2013-07-30 18:33:00,66.7,63.7,30.09,SE,135,4.0,9.0,90,0.00,,,0.00,meteohub,2013-07-30 23:33:00,
2013-07-30 18:38:00,66.7,64.0,30.09,South,180,4.0,9.0,91,0.00,,,0.00,meteohub,2013-07-30 23:38:00,
2013-07-30 18:43:00,66.7,64.0,30.09,SE,135,6.0,9.0,91,0.00,,,0.00,meteohub,2013-07-30 23:43:00,
2013-07-30 18:48:00,66.7,64.0,30.09,East,90,4.0,7.0,91,0.00,,,0.00,meteohub,2013-07-30 23:48:00,
2013-07-30 18:54:00,66.9,64.2,30.09,SE,135,5.0,7.0,91,0.00,,,0.00,meteohub,2013-07-30 23:54:00,
2013-07-30 18:59:00,66.9,64.2,30.09,South,180,7.0,7.0,91,0.00,,,0.00,meteohub,2013-07-30 23:59:00,
2013-07-30 19:04:00,66.7,64.0,30.09,ESE,113,6.0,7.0,91,0.00,,,0.00,meteohub,2013-07-31 00:04:00,
2013-07-30 19:09:00,66.6,63.9,30.10,SE,135,6.0,7.0,91,0.00,,,0.00,meteohub,2013-07-31 00:09:00,
2013-07-30 19:14:00,66.4,64.0,30.09,East,90,4.0,7.0,92,0.00,,,0.00,meteohub,2013-07-31 00:14:00,
2013-07-30 19:19:00,66.2,64.0,30.09,South,180,8.0,8.0,93,0.00,,,0.00,meteohub,2013-07-31 00:19:00,
2013-07-30 19:25:00,66.0,64.2,30.10,SE,135,7.0,7.0,94,0.00,,,0.00,meteohub,2013-07-31 00:25:00,
2013-07-30 19:30:00,65.8,64.0,30.09,South,180,5.0,8.0,94,0.00,,,0.00,meteohub,2013-07-31 00:30:00,
2013-07-30 19:35:00,65.7,63.9,30.10,SE,135,5.0,8.0,94,0.00,,,0.00,meteohub,2013-07-31 00:35:00,
2013-07-30 19:40:00,65.7,63.9,30.10,SE,135,4.0,5.0,94,0.00,,,0.00,meteohub,2013-07-31 00:40:00,
2013-07-30 19:46:00,65.5,63.7,30.10,SE,135,3.0,5.0,94,0.00,,,0.00,meteohub,2013-07-31 00:46:00,
2013-07-30 19:51:00,65.5,64.0,30.09,SSE,158,3.0,5.0,95,0.00,,,0.00,meteohub,2013-07-31 00:51:00,
2013-07-30 19:56:00,65.3,63.9,30.09,SE,135,4.0,6.0,95,0.00,,,0.00,meteohub,2013-07-31 00:56:00,
2013-07-30 20:01:00,65.1,64.0,30.10,South,180,1.0,6.0,96,0.00,,,0.00,meteohub,2013-07-31 01:01:00,
2013-07-30 20:07:00,65.1,64.0,30.09,SE,135,3.0,6.0,96,0.00,,,0.00,meteohub,2013-07-31 01:07:00,
2013-07-30 20:12:00,64.9,64.0,30.09,SE,135,3.0,6.0,97,0.00,,,0.00,meteohub,2013-07-31 01:12:00,
2013-07-30 20:17:00,64.8,63.9,30.10,SE,135,6.0,6.0,97,0.00,,,0.00,meteohub,2013-07-31 01:17:00,
2013-07-30 20:22:00,64.8,63.9,30.09,SE,135,8.0,8.0,97,0.00,,,0.00,meteohub,2013-07-31 01:22:00,
2013-07-30 20:27:00,64.6,63.7,30.09,SE,135,7.0,9.0,97,0.00,,,0.00,meteohub,2013-07-31 01:27:00,
2013-07-30 20:33:00,64.4,63.5,30.09,South,180,6.0,9.0,97,0.00,,,0.00,meteohub,2013-07-31 01:33:00,
2013-07-30 20:38:00,64.2,63.1,30.09,South,180,8.0,9.0,96,0.00,,,0.00,meteohub,2013-07-31 01:38:00,
2013-07-30 20:43:00,64.2,63.1,30.09,South,180,5.0,9.0,96,0.00,,,0.00,meteohub,2013-07-31 01:43:00,
2013-07-30 20:48:00,64.0,63.0,30.09,South,180,5.0,9.0,96,0.00,,,0.00,meteohub,2013-07-31 01:48:00,
2013-07-30 20:53:00,63.9,63.0,30.09,East,90,3.0,9.0,97,0.00,,,0.00,meteohub,2013-07-31 01:53:00,
2013-07-30 20:58:00,63.9,63.0,30.09,South,180,5.0,8.0,97,0.00,,,0.00,meteohub,2013-07-31 01:58:00,
2013-07-30 21:03:00,63.7,62.8,30.09,SE,135,4.0,6.0,97,0.00,,,0.00,meteohub,2013-07-31 02:03:00,
2013-07-30 21:08:00,63.7,62.8,30.09,SE,135,4.0,6.0,97,0.00,,,0.00,meteohub,2013-07-31 02:08:00,
2013-07-30 21:14:00,63.7,63.1,30.09,SE,135,7.0,7.0,98,0.00,,,0.00,meteohub,2013-07-31 02:14:00,
2013-07-30 21:19:00,63.7,63.1,30.09,SE,135,4.0,7.0,98,0.00,,,0.00,meteohub,2013-07-31 02:19:00,
2013-07-30 21:24:00,63.7,63.1,30.09,SE,135,7.0,8.0,98,0.00,,,0.00,meteohub,2013-07-31 02:24:00,
2013-07-30 21:29:00,63.5,63.1,30.10,SE,135,6.0,8.0,99,0.00,,,0.00,meteohub,2013-07-31 02:29:00,
2013-07-30 21:34:00,63.5,63.1,30.10,East,90,0.0,8.0,99,0.00,,,0.00,meteohub,2013-07-31 02:34:00,
2013-07-30 21:39:00,63.5,63.1,30.10,East,90,2.0,7.0,99,0.00,,,0.00,meteohub,2013-07-31 02:39:00,
2013-07-30 21:44:00,63.5,63.1,30.10,East,90,4.0,7.0,99,0.00,,,0.00,meteohub,2013-07-31 02:44:00,
2013-07-30 21:50:00,63.5,63.1,30.10,East,90,4.0,5.0,99,0.00,,,0.00,meteohub,2013-07-31 02:50:00,
2013-07-30 21:55:00,63.5,63.1,30.10,East,90,4.0,5.0,99,0.00,,,0.00,meteohub,2013-07-31 02:55:00,
2013-07-30 22:00:00,63.5,63.1,30.10,East,90,4.0,5.0,99,0.00,,,0.00,meteohub,2013-07-31 03:00:00,
2013-07-30 22:05:00,63.5,63.1,30.10,East,90,4.0,4.0,99,0.00,,,0.00,meteohub,2013-07-31 03:05:00,
2013-07-30 22:10:00,63.5,63.1,30.10,East,90,3.0,4.0,99,0.00,,,0.00,meteohub,2013-07-31 03:10:00,
2013-07-30 22:16:00,63.5,63.1,30.10,East,90,4.0,4.0,99,0.00,,,0.00,meteohub,2013-07-31 03:16:00,
2013-07-30 22:21:00,63.5,63.1,30.11,East,90,4.0,5.0,99,0.00,,,0.00,meteohub,2013-07-31 03:21:00,
2013-07-30 22:26:00,63.5,63.1,30.10,East,90,3.0,5.0,99,0.00,,,0.00,meteohub,2013-07-31 03:26:00,
2013-07-30 22:32:00,63.5,63.1,30.10,East,90,4.0,5.0,99,0.00,,,0.00,meteohub,2013-07-31 03:32:00,
2013-07-30 22:37:00,63.5,63.1,30.11,East,90,0.0,4.0,99,0.00,,,0.00,meteohub,2013-07-31 03:37:00,
2013-07-30 22:42:00,63.5,63.1,30.11,East,90,0.0,4.0,99,0.00,,,0.00,meteohub,2013-07-31 03:42:00,
2013-07-30 22:47:00,63.5,63.1,30.11,East,90,0.0,4.0,99,0.00,,,0.00,meteohub,2013-07-31 03:47:00,
2013-07-30 22:52:00,63.5,63.1,30.10,East,90,0.0,2.0,99,0.00,,,0.00,meteohub,2013-07-31 03:52:00,
2013-07-30 22:57:00,63.5,63.1,30.10,NE,45,3.0,0.0,99,0.00,,,0.00,meteohub,2013-07-31 03:57:00,
2013-07-30 23:01:00,63.5,63.1,30.10,East,90,4.0,4.0,99,0.00,,,0.00,meteohub,2013-07-31 04:01:00,
2013-07-30 23:02:00,63.5,63.1,30.10,East,90,4.0,4.0,99,0.00,,,0.00,meteohub,2013-07-31 04:02:00,
2013-07-30 23:03:00,63.5,63.1,30.09,East,90,4.0,4.0,99,0.00,,,0.00,meteohub,2013-07-31 04:03:00,
2013-07-30 23:04:00,63.5,63.1,30.10,East,90,4.0,4.0,99,0.00,,,0.00,meteohub,2013-07-31 04:04:00,
2013-07-30 23:05:00,63.5,63.1,30.09,East,90,4.0,4.0,99,0.00,,,0.00,meteohub,2013-07-31 04:05:00,
2013-07-30 23:10:00,63.5,63.1,30.10,East,90,2.0,4.0,99,0.00,,,0.00,meteohub,2013-07-31 04:10:00,
2013-07-30 23:15:00,63.5,63.1,30.10,East,90,0.0,4.0,99,0.00,,,0.00,meteohub,2013-07-31 04:15:00,
2013-07-30 23:20:00,63.5,63.1,30.10,East,90,0.0,4.0,99,0.00,,,0.00,meteohub,2013-07-31 04:20:00,
2013-07-30 23:25:00,63.5,63.1,30.09,East,90,4.0,4.0,99,0.00,,,0.00,meteohub,2013-07-31 04:25:00,
2013-07-30 23:30:00,63.5,63.1,30.09,NE,45,3.0,4.0,99,0.00,,,0.00,meteohub,2013-07-31 04:30:00,
2013-07-30 23:36:00,63.5,63.1,30.09,East,90,0.0,4.0,99,0.00,,,0.00,meteohub,2013-07-31 04:36:00,
2013-07-30 23:41:00,63.5,63.1,30.09,East,90,3.0,5.0,99,0.00,,,0.00,meteohub,2013-07-31 04:41:00,
2013-07-30 23:46:00,63.5,63.1,30.09,East,90,2.0,5.0,99,0.00,,,0.00,meteohub,2013-07-31 04:46:00,
2013-07-30 23:51:00,63.5,63.1,30.09,NE,45,2.0,5.0,99,0.00,,,0.00,meteohub,2013-07-31 04:51:00,
2013-07-30 23:56:00,63.5,63.1,30.09,East,90,2.0,4.0,99,0.00,,,0.00,meteohub,2013-07-31 04:56:00,